createdAt,value
2018-03-22T00:02:06.141Z,10.20
2018-03-22T00:04:41.617Z,10.57
2018-03-22T00:07:09.074Z,11.20
2018-03-22T00:09:35.865Z,11.75
2018-03-22T00:12:03.399Z,12.00
2018-03-22T00:14:35.422Z,13.10
2018-03-22T00:17:04.367Z,12.37
2018-03-22T00:19:31.159Z,11.63
2018-03-22T00:22:02.063Z,10.35
2018-03-22T00:24:32.894Z,11.93
2018-03-22T00:27:03.251Z,12.35
2018-03-22T00:29:30.092Z,11.52
2018-03-22T00:32:08.558Z,11.05
2018-03-22T00:34:39.184Z,11.60
2018-03-22T00:37:05.815Z,12.40
2018-03-22T00:39:32.511Z,12.82
2018-03-22T00:42:04.111Z,12.32
2018-03-22T00:44:30.924Z,12.60
2018-03-22T00:46:58.507Z,12.98
2018-03-22T00:49:25.906Z,11.12
2018-03-22T00:51:52.623Z,12.70
2018-03-22T00:54:23.528Z,12.65
2018-03-22T00:56:52.121Z,11.55
2018-03-22T00:59:41.802Z,13.20
2018-03-22T01:02:13.338Z,12.77
2018-03-22T01:04:40.040Z,12.63
2018-03-22T01:07:06.727Z,11.05
2018-03-22T01:09:33.477Z,12.93
2018-03-22T01:12:01.248Z,12.50
2018-03-22T01:14:30.853Z,13.40
2018-03-22T01:17:03.988Z,12.93
2018-03-22T01:19:31.259Z,14.32
2018-03-22T01:21:57.985Z,12.65
2018-03-22T01:24:28.765Z,12.90
2018-03-22T01:26:56.537Z,12.93
2018-03-22T01:29:27.324Z,13.25
2018-03-22T01:31:58.842Z,12.70
2018-03-22T01:34:31.200Z,12.40
2018-03-22T01:36:58.468Z,11.75
2018-03-22T01:39:29.858Z,11.38
2018-03-22T01:42:04.390Z,8.50
2018-03-22T01:44:32.352Z,8.35
2018-03-22T01:46:59.232Z,9.95
2018-03-22T01:49:27.442Z,10.70
2018-03-22T01:51:54.174Z,11.60
2018-03-22T01:54:21.750Z,11.45
2018-03-22T01:56:48.668Z,11.27
2018-03-22T01:59:19.330Z,11.52
2018-03-22T02:01:46.949Z,10.95
2018-03-22T02:04:18.336Z,14.27
2018-03-22T02:06:45.033Z,14.82
2018-03-22T02:09:12.093Z,15.38
2018-03-22T02:11:39.749Z,18.25
2018-03-22T02:14:10.250Z,17.02
2018-03-22T02:16:37.396Z,18.08
2018-03-22T02:19:04.721Z,19.23
2018-03-22T02:21:38.015Z,19.58
2018-03-22T02:24:09.540Z,18.85
2018-03-22T02:26:36.895Z,20.52
2018-03-22T02:29:03.600Z,17.83
2018-03-22T02:31:30.290Z,21.83
2018-03-22T02:34:00.715Z,20.55
2018-03-22T02:36:30.387Z,19.00
2018-03-22T02:38:57.081Z,20.15
2018-03-22T02:41:23.749Z,20.80
2018-03-22T02:43:58.468Z,19.92
2018-03-22T02:46:25.833Z,19.80
2018-03-22T02:48:52.606Z,19.73
2018-03-22T02:51:19.234Z,19.58
2018-03-22T02:53:45.891Z,19.70
2018-03-22T02:56:12.562Z,19.08
2018-03-22T02:58:39.225Z,19.95
2018-03-22T03:01:06.515Z,19.95
2018-03-22T03:03:33.813Z,19.33
2018-03-22T03:06:01.365Z,18.08
2018-03-22T03:08:28.361Z,17.52
2018-03-22T03:10:58.044Z,18.27
2018-03-22T03:13:24.758Z,16.17
2018-03-22T03:15:52.499Z,17.02
2018-03-22T03:18:19.211Z,17.65
2018-03-22T03:20:49.404Z,16.80
2018-03-22T03:23:17.602Z,17.30
2018-03-22T03:25:48.416Z,16.20
2018-03-22T03:28:15.130Z,16.05
2018-03-22T03:30:42.723Z,17.67
2018-03-22T03:33:11.247Z,16.00
2018-03-22T03:35:45.843Z,16.20
2018-03-22T03:38:16.897Z,15.93
2018-03-22T03:40:44.388Z,16.33
2018-03-22T03:43:11.217Z,17.15
2018-03-22T03:45:38.844Z,17.20
2018-03-22T03:48:08.201Z,16.37
2018-03-22T03:50:39.010Z,17.90
2018-03-22T03:53:17.701Z,18.15
2018-03-22T03:55:45.434Z,15.00
2018-03-22T03:58:12.461Z,15.25
2018-03-22T04:10:28.672Z,17.37
2018-03-22T04:12:56.128Z,17.60
2018-03-22T04:15:24.289Z,18.27
2018-03-22T04:17:54.816Z,16.95
2018-03-22T04:20:22.479Z,17.77
2018-03-22T04:22:53.781Z,17.60
2018-03-22T04:25:28.655Z,16.58
2018-03-22T04:27:55.350Z,18.70
2018-03-22T04:30:21.975Z,19.52
2018-03-22T04:32:53.134Z,18.95
2018-03-22T04:35:19.844Z,18.05
2018-03-22T04:37:47.357Z,17.42
2018-03-22T04:40:14.088Z,18.90
2018-03-22T04:52:30.086Z,19.75
2018-03-22T04:55:08.267Z,20.65
2018-03-22T04:57:36.088Z,19.35
2018-03-22T05:00:03.472Z,20.37
2018-03-22T05:02:30.219Z,20.55
2018-03-22T05:05:00.665Z,21.52
2018-03-22T05:07:31.712Z,21.65
2018-03-22T05:09:59.124Z,21.37
2018-03-22T05:12:26.493Z,23.58
2018-03-22T05:14:53.256Z,24.00
2018-03-22T05:17:20.437Z,23.98
2018-03-22T05:19:47.132Z,23.50
2018-03-22T05:22:13.794Z,23.42
2018-03-22T05:24:44.969Z,24.40
2018-03-22T05:27:13.228Z,22.50
2018-03-22T05:29:44.005Z,22.77
2018-03-22T05:32:10.691Z,24.10
2018-03-22T05:34:37.500Z,25.80
2018-03-22T05:37:07.401Z,23.87
2018-03-22T05:39:34.085Z,25.55
2018-03-22T05:42:06.246Z,24.00
2018-03-22T05:44:33.093Z,25.30
2018-03-22T05:47:00.507Z,24.02
2018-03-22T05:59:12.240Z,24.02
2018-03-22T06:01:39.757Z,25.05
2018-03-22T06:04:06.531Z,25.02
2018-03-22T06:06:33.210Z,25.65
2018-03-22T06:09:01.952Z,26.90
2018-03-22T06:11:35.352Z,25.55
2018-03-22T06:14:03.316Z,25.90
2018-03-22T06:16:30.040Z,26.50
2018-03-22T06:18:56.697Z,25.95
2018-03-22T06:21:23.784Z,26.62
2018-03-22T06:23:52.325Z,26.60
2018-03-22T06:26:19.159Z,26.08
2018-03-22T06:28:51.539Z,26.25
2018-03-22T06:31:19.627Z,26.05
2018-03-22T06:33:46.364Z,27.27
2018-03-22T06:36:13.178Z,27.27
2018-03-22T06:38:40.612Z,26.37
2018-03-22T06:41:07.851Z,25.17
2018-03-22T06:43:34.585Z,26.52
2018-03-22T06:46:01.721Z,25.88
2018-03-22T06:48:28.344Z,25.50
2018-03-22T06:50:54.992Z,29.48
2018-03-22T06:53:21.682Z,26.33
2018-03-22T06:55:48.324Z,25.90
2018-03-22T06:58:14.978Z,26.12
2018-03-22T07:00:41.625Z,27.35
2018-03-22T07:03:08.273Z,26.58
2018-03-22T07:05:34.948Z,30.35
2018-03-22T07:08:01.587Z,30.60
2018-03-22T07:10:28.326Z,29.98
2018-03-22T07:12:54.958Z,28.85
2018-03-22T07:15:21.595Z,30.02
2018-03-22T07:17:48.298Z,31.60
2018-03-22T07:20:14.950Z,31.83
2018-03-22T07:22:41.664Z,30.88
2018-03-22T07:25:08.459Z,31.70
2018-03-22T07:27:35.283Z,32.05
2018-03-22T07:30:02.035Z,31.05
2018-03-22T07:32:32.928Z,31.80
2018-03-22T07:34:59.918Z,32.13
2018-03-22T07:37:26.714Z,33.05
2018-03-22T07:39:53.495Z,32.25
2018-03-22T07:42:20.395Z,30.65
2018-03-22T07:44:49.162Z,28.80
2018-03-22T07:47:15.973Z,30.67
2018-03-22T07:49:43.609Z,27.70
2018-03-22T07:52:10.268Z,30.88
2018-03-22T07:54:37.151Z,29.77
2018-03-22T07:57:03.857Z,30.25
2018-03-22T07:59:31.518Z,29.90
2018-03-22T08:01:58.483Z,29.63
2018-03-22T08:04:25.407Z,30.35
2018-03-22T08:06:52.218Z,29.45
2018-03-22T08:09:18.993Z,30.80
2018-03-22T08:11:49.688Z,31.15
2018-03-22T08:14:16.522Z,29.87
2018-03-22T08:16:43.458Z,28.58
2018-03-22T08:19:10.222Z,28.70
2018-03-22T08:21:36.975Z,28.87
2018-03-22T08:24:04.602Z,26.65
2018-03-22T08:26:31.660Z,27.02
2018-03-22T08:28:58.518Z,29.70
2018-03-22T08:31:25.245Z,28.00
2018-03-22T08:33:52.185Z,28.10
2018-03-22T08:36:18.997Z,26.77
2018-03-22T08:38:45.717Z,28.73
2018-03-22T08:41:12.464Z,28.12
2018-03-22T08:43:39.253Z,27.25
2018-03-22T08:46:06.053Z,26.27
2018-03-22T08:48:32.839Z,27.27
2018-03-22T08:50:59.942Z,27.08
2018-03-22T08:53:26.681Z,28.20
2018-03-22T08:55:53.452Z,26.65
2018-03-22T08:58:20.298Z,27.50
2018-03-22T09:00:47.048Z,27.50
2018-03-22T09:03:13.943Z,23.95
2018-03-22T09:05:40.624Z,25.90
2018-03-22T09:08:07.410Z,23.73
2018-03-22T09:10:34.150Z,24.70
2018-03-22T09:13:00.972Z,25.85
2018-03-22T09:15:27.830Z,25.33
2018-03-22T09:17:54.510Z,24.77
2018-03-22T09:20:21.229Z,22.83
2018-03-22T09:22:48.099Z,24.90
2018-03-22T09:25:14.800Z,24.83
2018-03-22T09:27:41.499Z,23.15
2018-03-22T09:30:08.262Z,23.15
2018-03-22T09:32:35.094Z,23.62
2018-03-22T09:35:02.785Z,23.33
2018-03-22T09:37:29.619Z,23.00
2018-03-22T09:39:56.355Z,23.00
2018-03-22T09:42:23.255Z,21.87
2018-03-22T09:44:50.691Z,21.60
2018-03-22T09:47:17.537Z,20.33
2018-03-22T09:49:44.228Z,22.62
2018-03-22T09:52:11.023Z,21.65
2018-03-22T09:54:37.925Z,20.85
2018-03-22T09:57:04.613Z,20.77
2018-03-22T09:59:31.630Z,20.30
2018-03-22T10:02:02.822Z,21.40
2018-03-22T10:04:33.763Z,21.10
2018-03-22T10:07:00.637Z,21.42
2018-03-22T10:09:27.523Z,21.37
2018-03-22T10:11:54.284Z,21.10
2018-03-22T10:14:20.999Z,20.02
2018-03-22T10:16:47.661Z,20.12
2018-03-22T10:19:14.430Z,19.62
2018-03-22T10:21:41.152Z,19.25
2018-03-22T10:24:07.912Z,19.90
2018-03-22T10:26:35.075Z,20.88
2018-03-22T10:29:01.803Z,19.95
2018-03-22T10:31:28.865Z,19.25
2018-03-22T10:33:55.861Z,21.48
2018-03-22T10:36:22.742Z,20.10
2018-03-22T10:38:49.458Z,21.12
2018-03-22T10:43:59.896Z,20.55
2018-03-22T10:46:26.978Z,20.95
2018-03-22T10:48:53.751Z,20.67
2018-03-22T10:51:20.462Z,20.65
2018-03-22T10:53:47.212Z,20.23
2018-03-22T10:56:14.021Z,21.02
2018-03-22T10:58:40.957Z,18.83
2018-03-22T11:01:18.771Z,21.42
2018-03-22T11:03:53.866Z,18.77
2018-03-22T11:06:25.404Z,20.40
2018-03-22T11:08:54.146Z,17.98
2018-03-22T11:11:21.731Z,20.80
2018-03-22T11:13:49.302Z,20.90
2018-03-22T11:16:20.033Z,18.95
2018-03-22T11:18:46.891Z,19.15
2018-03-22T11:21:17.942Z,18.77
2018-03-22T11:23:51.056Z,16.62
2018-03-22T11:26:18.600Z,18.30
2018-03-22T11:28:45.513Z,16.60
2018-03-22T11:31:13.578Z,17.10
2018-03-22T11:33:42.938Z,17.02
2018-03-22T11:36:10.118Z,18.23
2018-03-22T11:38:38.868Z,17.62
2018-03-22T11:41:22.524Z,17.17
2018-03-22T11:46:27.336Z,17.87
2018-03-22T11:48:55.399Z,17.00
2018-03-22T11:51:26.996Z,16.50
2018-03-22T11:53:53.775Z,18.90
2018-03-22T11:56:20.501Z,16.92
2018-03-22T11:58:47.340Z,16.58
2018-03-22T12:01:14.233Z,16.37
2018-03-22T12:03:41.467Z,17.45
2018-03-22T12:06:08.826Z,15.82
2018-03-22T12:08:42.206Z,15.75
2018-03-22T12:11:12.855Z,15.70
2018-03-22T12:13:40.721Z,14.23
2018-03-22T12:16:07.547Z,15.32
2018-03-22T12:18:38.093Z,13.73
2018-03-22T12:21:04.978Z,15.60
2018-03-22T12:23:32.750Z,13.65
2018-03-22T12:26:04.036Z,14.35
2018-03-22T12:28:32.827Z,13.80
2018-03-22T12:30:59.898Z,13.40
2018-03-22T12:33:26.971Z,13.23
2018-03-22T12:35:54.157Z,13.77
2018-03-22T12:38:21.744Z,13.43
2018-03-22T12:40:53.482Z,12.88
2018-03-22T12:43:20.603Z,12.70
2018-03-22T12:45:49.732Z,13.18
2018-03-22T12:48:17.387Z,12.73
2018-03-22T12:50:48.627Z,13.43
2018-03-22T12:53:23.934Z,11.65
2018-03-22T12:55:51.659Z,12.85
2018-03-22T12:58:18.434Z,13.20
2018-03-22T13:00:45.248Z,13.50
2018-03-22T13:03:11.924Z,13.02
2018-03-22T13:05:38.607Z,13.77
2018-03-22T13:08:05.490Z,14.25
2018-03-22T13:10:32.493Z,13.60
2018-03-22T13:12:59.266Z,12.40
2018-03-22T13:15:26.550Z,13.05
2018-03-22T13:17:53.449Z,13.70
2018-03-22T13:20:20.404Z,13.43
2018-03-22T13:22:47.213Z,13.38
2018-03-22T13:25:13.920Z,13.77
2018-03-22T13:27:40.851Z,15.77
2018-03-22T13:30:07.615Z,14.00
2018-03-22T13:32:34.354Z,14.43
2018-03-22T13:35:02.592Z,13.02
2018-03-22T13:37:29.306Z,13.07
2018-03-22T13:39:56.095Z,14.27
2018-03-22T13:42:23.066Z,12.75
2018-03-22T13:44:49.936Z,11.73
2018-03-22T13:47:16.811Z,13.27
2018-03-22T13:49:43.590Z,13.10
2018-03-22T13:52:10.709Z,15.55
2018-03-22T13:54:37.382Z,12.00
2018-03-22T13:57:04.251Z,13.02
2018-03-22T13:59:31.000Z,11.00
2018-03-22T14:01:58.308Z,12.05
2018-03-22T14:04:25.121Z,12.68
2018-03-22T14:06:51.832Z,12.35
2018-03-22T14:09:19.303Z,13.30
2018-03-22T14:11:46.013Z,13.00
2018-03-22T14:14:12.780Z,12.88
2018-03-22T14:16:39.778Z,14.02
2018-03-22T14:19:06.777Z,12.85
2018-03-22T14:21:34.224Z,12.77
2018-03-22T14:24:01.049Z,13.10
2018-03-22T14:26:27.982Z,13.25
2018-03-22T14:28:54.882Z,14.10
2018-03-22T14:31:21.649Z,13.23
2018-03-22T14:33:48.394Z,13.70
2018-03-22T14:36:15.197Z,12.50
2018-03-22T14:38:42.063Z,12.15
2018-03-22T14:41:08.907Z,12.15
2018-03-22T14:43:35.763Z,13.45
2018-03-22T14:46:02.672Z,12.13
2018-03-22T14:48:29.456Z,12.82
2018-03-22T14:50:56.361Z,13.80
2018-03-22T14:53:23.507Z,12.27
2018-03-22T14:55:50.368Z,11.82
2018-03-22T14:58:17.290Z,11.10
2018-03-22T15:00:44.112Z,12.43
2018-03-22T15:03:11.343Z,10.85
2018-03-22T15:05:38.209Z,10.57
2018-03-22T15:08:04.967Z,10.88
2018-03-22T15:10:31.902Z,9.57
2018-03-22T15:12:59.012Z,10.15
2018-03-22T15:15:26.080Z,9.23
2018-03-22T15:17:52.842Z,8.68
2018-03-22T15:20:19.863Z,7.43
2018-03-22T15:22:46.716Z,8.55
2018-03-22T15:25:13.953Z,9.20
2018-03-22T15:27:40.975Z,8.88
2018-03-22T15:30:07.823Z,10.50
2018-03-22T15:32:34.644Z,8.98
2018-03-22T15:35:01.634Z,7.47
2018-03-22T15:37:28.363Z,8.18
2018-03-22T15:39:55.100Z,6.65
2018-03-22T15:42:22.629Z,6.37
2018-03-22T15:44:49.418Z,5.97
2018-03-22T15:47:16.155Z,7.35
2018-03-22T15:49:43.377Z,6.22
2018-03-22T15:52:10.134Z,6.87
2018-03-22T15:54:36.853Z,6.12
2018-03-22T15:57:03.565Z,6.12
2018-03-22T15:59:30.511Z,5.50
2018-03-22T16:01:57.440Z,5.35
2018-03-22T16:04:24.445Z,5.60
2018-03-22T16:06:51.322Z,5.37
2018-03-22T16:09:18.254Z,5.37
2018-03-22T16:11:45.114Z,5.78
2018-03-22T16:14:11.885Z,4.75
2018-03-22T16:16:38.687Z,4.93
2018-03-22T16:19:05.482Z,4.50
2018-03-22T16:21:32.349Z,4.60
2018-03-22T16:23:59.193Z,4.50
2018-03-22T16:26:25.890Z,5.00
2018-03-22T16:28:52.752Z,5.12
2018-03-22T16:31:19.522Z,4.72
2018-03-22T16:33:46.274Z,5.05
2018-03-22T16:36:13.051Z,4.05
2018-03-22T16:38:40.243Z,5.10
2018-03-22T16:41:07.056Z,4.70
2018-03-22T16:43:33.849Z,4.32
2018-03-22T16:46:00.967Z,4.32
2018-03-22T16:48:27.851Z,5.00
2018-03-22T16:50:54.863Z,4.87
2018-03-22T16:53:21.623Z,4.87
2018-03-22T16:55:48.469Z,4.80
2018-03-22T16:58:15.266Z,5.07
2018-03-22T17:00:42.197Z,5.35
2018-03-22T17:03:09.039Z,6.50
2018-03-22T17:05:35.889Z,6.62
2018-03-22T17:08:02.762Z,7.03
2018-03-22T17:10:29.730Z,5.30
2018-03-22T17:12:56.868Z,5.32
2018-03-22T17:15:23.928Z,5.50
2018-03-22T17:17:50.936Z,4.75
2018-03-22T17:20:18.249Z,5.03
2018-03-22T17:22:45.234Z,5.28
2018-03-22T17:25:12.228Z,4.80
2018-03-22T17:27:39.351Z,5.75
2018-03-22T17:30:06.192Z,5.90
2018-03-22T17:32:33.154Z,6.10
2018-03-22T17:34:59.881Z,5.93
2018-03-22T17:37:26.673Z,5.85
2018-03-22T17:39:53.633Z,5.30
2018-03-22T17:42:20.534Z,5.25
2018-03-22T17:44:47.492Z,5.70
2018-03-22T17:47:14.213Z,4.97
2018-03-22T17:49:42.295Z,4.68
2018-03-22T17:52:09.402Z,5.45
2018-03-22T17:54:36.319Z,5.25
2018-03-22T17:57:03.212Z,6.32
2018-03-22T17:59:30.106Z,6.90
2018-03-22T18:01:57.002Z,7.18
2018-03-22T18:04:23.817Z,6.47
2018-03-22T18:06:50.595Z,6.72
2018-03-22T18:09:17.433Z,7.28
2018-03-22T18:11:44.215Z,7.40
2018-03-22T18:14:11.130Z,6.85
2018-03-22T18:16:38.227Z,6.37
2018-03-22T18:19:04.979Z,6.45
2018-03-22T18:21:32.870Z,6.68
2018-03-22T18:23:59.996Z,6.50
2018-03-22T18:26:28.561Z,7.40
2018-03-22T18:28:55.909Z,6.90
2018-03-22T18:31:22.929Z,7.22
2018-03-22T18:33:50.161Z,6.87
2018-03-22T18:36:17.115Z,7.00
2018-03-22T18:38:45.035Z,6.55
2018-03-22T18:41:17.537Z,6.70
2018-03-22T18:43:44.632Z,6.60
2018-03-22T18:46:11.526Z,7.68
2018-03-22T18:48:39.110Z,7.50
2018-03-22T18:51:06.291Z,9.75
2018-03-22T18:53:33.478Z,8.75
2018-03-22T18:56:00.558Z,10.25
2018-03-22T18:58:27.698Z,9.43
2018-03-22T19:00:57.985Z,9.98
2018-03-22T19:03:24.964Z,9.48
2018-03-22T19:05:55.333Z,9.43
2018-03-22T19:08:22.995Z,10.70
2018-03-22T19:10:50.135Z,9.18
2018-03-22T19:13:21.532Z,9.10
2018-03-22T19:15:48.523Z,11.20
2018-03-22T19:18:15.386Z,11.90
2018-03-22T19:20:42.289Z,11.05
2018-03-22T19:23:09.905Z,8.85
2018-03-22T19:25:36.787Z,9.30
2018-03-22T19:28:03.639Z,9.70
2018-03-22T19:30:30.679Z,8.48
2018-03-22T19:32:58.464Z,8.40
2018-03-22T19:35:25.392Z,9.30
2018-03-22T19:37:52.461Z,9.48
2018-03-22T19:40:19.325Z,8.63
2018-03-22T19:42:47.983Z,8.32
2018-03-22T19:45:14.862Z,8.30
2018-03-22T19:47:42.735Z,9.25
2018-03-22T19:50:10.075Z,9.05
2018-03-22T19:52:36.999Z,8.93
2018-03-22T19:55:04.037Z,10.00
2018-03-22T19:57:32.758Z,10.00
2018-03-22T20:00:00.572Z,10.60
2018-03-22T20:02:27.596Z,9.95
2018-03-22T20:04:54.507Z,8.95
2018-03-22T20:07:21.559Z,9.45
2018-03-22T20:09:54.718Z,9.65
2018-03-22T20:12:21.749Z,10.30
2018-03-22T20:14:48.843Z,10.18
2018-03-22T20:17:15.811Z,11.15
2018-03-22T20:19:42.664Z,10.10
2018-03-22T20:22:09.471Z,10.20
2018-03-22T20:24:36.865Z,10.57
2018-03-22T20:27:09.427Z,9.55
2018-03-22T20:29:40.740Z,9.60
2018-03-22T20:32:07.562Z,9.43
2018-03-22T20:34:34.415Z,9.82
2018-03-22T20:37:01.437Z,9.45
2018-03-22T20:39:28.206Z,9.65
2018-03-22T20:41:55.277Z,9.85
2018-03-22T20:44:22.172Z,10.30
2018-03-22T20:46:49.003Z,9.10
2018-03-22T20:49:16.382Z,10.23
2018-03-22T20:51:43.593Z,10.15
2018-03-22T20:54:10.554Z,10.23
2018-03-22T20:56:37.605Z,10.27
2018-03-22T20:59:04.768Z,10.50
2018-03-22T21:01:32.007Z,10.20
2018-03-22T21:03:59.297Z,9.30
2018-03-22T21:06:26.253Z,9.27
2018-03-22T21:08:53.352Z,9.93
2018-03-22T21:11:20.421Z,10.10
2018-03-22T21:13:47.517Z,9.45
2018-03-22T21:16:14.704Z,8.82
2018-03-22T21:18:41.626Z,10.95
2018-03-22T21:21:09.720Z,9.73
2018-03-22T21:23:36.810Z,9.18
2018-03-22T21:26:03.659Z,9.48
2018-03-22T21:28:30.915Z,9.13
2018-03-22T21:30:58.091Z,9.32
2018-03-22T21:33:24.912Z,7.28
2018-03-22T21:35:55.420Z,8.00
2018-03-22T21:38:22.689Z,8.98
2018-03-22T21:40:49.537Z,9.10
2018-03-22T21:43:20.587Z,7.00
2018-03-22T21:45:47.515Z,7.57
2018-03-22T21:48:14.473Z,7.65
2018-03-22T21:50:47.640Z,6.53
2018-03-22T21:53:15.145Z,7.25
2018-03-22T21:55:41.964Z,7.20
2018-03-22T21:58:13.864Z,7.62
2018-03-22T22:00:40.696Z,7.55
2018-03-22T22:03:07.494Z,7.35
2018-03-22T22:05:34.347Z,7.57
2018-03-22T22:08:05.192Z,7.55
2018-03-22T22:10:36.303Z,7.20
2018-03-22T22:13:03.091Z,7.10
2018-03-22T22:15:29.986Z,8.32
2018-03-22T22:17:56.922Z,9.48
2018-03-22T22:20:23.794Z,8.13
2018-03-22T22:22:50.519Z,9.15
2018-03-22T22:25:17.339Z,8.60
2018-03-22T22:27:44.469Z,9.45
2018-03-22T22:30:11.332Z,7.72
2018-03-22T22:32:38.244Z,7.70
2018-03-22T22:35:04.968Z,8.23
2018-03-22T22:37:35.985Z,7.75
2018-03-22T22:40:02.933Z,8.70
2018-03-22T22:42:30.388Z,7.87
2018-03-22T22:44:57.174Z,8.95
2018-03-22T22:47:24.174Z,8.75
2018-03-22T22:49:50.914Z,8.45
2018-03-22T22:52:17.961Z,8.50
2018-03-22T22:54:44.777Z,9.32
2018-03-22T22:57:12.511Z,9.10
2018-03-22T22:59:39.340Z,9.00
2018-03-22T23:02:06.049Z,9.68
2018-03-22T23:04:32.889Z,7.68
2018-03-22T23:06:59.648Z,6.93
2018-03-22T23:09:26.284Z,6.60
2018-03-22T23:11:53.501Z,6.85
2018-03-22T23:14:20.929Z,6.78
2018-03-22T23:16:47.737Z,7.00
2018-03-22T23:19:14.483Z,6.70
2018-03-22T23:21:41.343Z,6.47
2018-03-22T23:24:08.960Z,6.55
2018-03-22T23:26:36.328Z,6.70
2018-03-22T23:29:03.294Z,6.90
2018-03-22T23:31:31.102Z,7.20
2018-03-22T23:33:58.595Z,7.90
2018-03-22T23:36:25.929Z,7.70
2018-03-22T23:38:56.992Z,8.07
2018-03-22T23:41:28.245Z,7.00
2018-03-22T23:43:55.997Z,7.80
2018-03-22T23:46:23.612Z,7.75
2018-03-22T23:48:50.418Z,8.27
2018-03-22T23:51:17.419Z,8.55
2018-03-22T23:53:44.198Z,8.38
2018-03-22T23:56:14.785Z,8.10
2018-03-22T23:58:42.017Z,7.18
